Time;durP1;ratioP1;P1;durP2;ratioP2;P2;SDS_P1;SDS_P2;PMS_P1;PMS_P2;Temp;Humidity;BMP_temperature;BMP_pressure;BME280_temperature;BME280_humidity;BME280_pressure;Samples;Min_cycle;Max_cycle;Signal;HPM_P1;HPM_P2
2021/03/05 00:26:27;;;;;;;23.05;12.75;;;;;;;3.50;66.69;98875.45;1794875;80;23737;-77
2021/03/05 00:28:58;;;;;;;30.08;14.15;;;;;;;3.59;65.40;98871.05;1787465;80;21590;-77
2021/03/05 00:31:26;;;;;;;26.00;12.45;;;;;;;3.46;65.25;98870.50;1771580;80;21124;-77
2021/03/05 00:33:54;;;;;;;25.85;12.37;;;;;;;3.36;65.58;98865.75;1756668;82;21169;-77
2021/03/05 00:36:23;;;;;;;24.00;12.05;;;;;;;3.25;65.69;98883.81;1756445;82;21180;-78
2021/03/05 00:38:52;;;;;;;29.40;13.30;;;;;;;3.14;65.72;98874.41;1759770;80;21129;-77
2021/03/05 00:41:20;;;;;;;26.07;11.60;;;;;;;3.05;66.21;98886.18;1708184;83;21607;-78
2021/03/05 00:43:47;;;;;;;25.12;12.25;;;;;;;2.98;66.28;98883.05;1736251;83;21203;-78
2021/03/05 00:46:17;;;;;;;29.42;13.35;;;;;;;2.92;66.39;98872.45;1707200;84;21313;-78
2021/03/05 00:48:45;;;;;;;29.35;13.98;;;;;;;2.87;66.44;98888.00;1736331;82;21191;-78
2021/03/05 00:51:13;;;;;;;27.48;12.60;;;;;;;2.85;66.57;98885.92;1733893;83;21174;-78
2021/03/05 00:53:40;;;;;;;29.37;13.38;;;;;;;2.88;66.66;98880.55;1730540;83;21178;-78
2021/03/05 00:56:07;;;;;;;26.85;12.98;;;;;;;2.87;66.75;98876.25;1730506;83;21607;-78
2021/03/05 00:58:36;;;;;;;27.52;12.98;;;;;;;2.89;66.68;98873.08;1732646;83;21178;-78
2021/03/05 01:01:04;;;;;;;28.07;12.65;;;;;;;2.86;66.76;98874.55;1734264;83;21587;-78
2021/03/05 01:03:34;;;;;;;24.02;12.85;;;;;;;2.87;66.77;98870.55;1733964;83;21148;-78
2021/03/05 01:06:04;;;;;;;26.15;13.15;;;;;;;2.87;66.67;98867.11;1708945;83;21182;-78
2021/03/05 01:08:32;;;;;;;29.92;13.90;;;;;;;2.85;66.56;98871.11;1749812;82;21156;-78
2021/03/05 01:11:00;;;;;;;27.50;13.43;;;;;;;2.89;66.44;98861.32;1720773;83;21141;-78
2021/03/05 01:13:29;;;;;;;24.45;13.30;;;;;;;2.87;66.53;98860.58;1732424;83;21799;-78
2021/03/05 01:15:56;;;;;;;27.22;13.43;;;;;;;2.87;66.53;98867.94;1741823;81;21607;-78
2021/03/05 01:18:24;;;;;;;27.67;12.45;;;;;;;2.86;66.37;98874.08;1737536;82;21154;-78
2021/03/05 01:20:52;;;;;;;22.52;11.45;;;;;;;2.85;66.17;98876.34;1758915;81;21163;-78
2021/03/05 01:23:20;;;;;;;24.37;11.63;;;;;;;2.85;65.74;98878.09;1758690;81;21653;-78
2021/03/05 01:25:48;;;;;;;21.23;10.00;;;;;;;2.77;65.77;98876.70;1758170;81;21502;-78
2021/03/05 01:28:16;;;;;;;22.45;9.75;;;;;;;2.70;65.74;98875.36;1757877;81;21163;-78
2021/03/05 01:30:44;;;;;;;21.07;9.38;;;;;;;2.60;66.00;98874.98;1757830;81;21143;-78
2021/03/05 01:33:12;;;;;;;19.67;8.98;;;;;;;2.60;66.03;98876.29;1757792;81;21219;-78
2021/03/05 01:35:41;;;;;;;23.35;10.53;;;;;;;2.55;66.11;98884.81;1757763;81;21309;-78
2021/03/05 01:38:09;;;;;;;23.00;9.88;;;;;;;2.52;66.43;98884.12;1751147;81;21591;-77
2021/03/05 01:40:39;;;;;;;23.07;9.65;;;;;;;2.45;66.77;98879.21;1709809;82;21179;-78
2021/03/05 01:43:13;;;;;;;22.65;9.48;;;;;;;2.44;66.99;98878.86;1737325;82;21587;-78
2021/03/05 01:45:41;;;;;;;20.88;9.60;;;;;;;2.41;67.05;98888.13;1737063;82;21142;-78
2021/03/05 01:48:14;;;;;;;19.23;9.30;;;;;;;2.41;67.21;98885.52;1737362;82;21170;-77
2021/03/05 01:51:13;;;;;;;25.80;11.80;;;;;;;2.37;67.33;98888.37;1739887;81;21571;-78
2021/03/05 01:53:41;;;;;;;27.17;11.10;;;;;;;2.37;67.34;98898.34;1722843;82;21301;-78
2021/03/05 01:56:10;;;;;;;25.82;11.60;;;;;;;2.34;67.62;98903.73;1767897;81;21583;-78
2021/03/05 01:58:37;;;;;;;27.32;12.68;;;;;;;2.32;67.64;98897.73;1722831;82;21182;-78
2021/03/05 02:01:09;;;;;;;27.32;12.60;;;;;;;2.34;67.67;98905.03;1759325;81;21195;-78
2021/03/05 02:03:39;;;;;;;23.40;11.28;;;;;;;2.30;67.90;98903.47;1757701;81;21651;-78
2021/03/05 02:06:07;;;;;;;24.77;11.18;;;;;;;2.32;67.94;98902.95;1757714;81;21194;-78
2021/03/05 02:08:34;;;;;;;21.50;10.30;;;;;;;2.30;68.17;98902.17;1757842;81;21156;-78
2021/03/05 02:11:01;;;;;;;22.82;10.95;;;;;;;2.32;68.18;98909.95;1757082;81;21627;-78
2021/03/05 02:13:29;;;;;;;25.70;11.45;;;;;;;2.32;68.31;98915.16;1757723;81;21466;-78
2021/03/05 02:15:58;;;;;;;29.72;13.60;;;;;;;2.33;68.32;98907.70;1757837;81;21184;-78
2021/03/05 02:18:36;;;;;;;29.95;12.78;;;;;;;2.24;68.34;98903.33;1734555;81;21187;-78
2021/03/05 02:21:50;;;;;;;25.52;12.07;;;;;;;2.27;68.47;98906.25;1752549;79;22985;-77
2021/03/05 02:25:04;;;;;;;27.48;12.90;;;;;;;2.18;68.63;98918.45;1723254;83;21162;-77
2021/03/05 02:28:10;;;;;;;29.27;12.98;;;;;;;2.16;68.82;98915.06;1722446;83;21183;-77
2021/03/05 02:31:21;;;;;;;30.62;12.68;;;;;;;2.18;68.89;98921.06;1723902;82;21623;-77
2021/03/05 02:33:55;;;;;;;30.45;13.65;;;;;;;2.17;68.91;98928.02;1723382;83;21694;-77
2021/03/05 02:36:37;;;;;;;29.10;13.85;;;;;;;2.13;68.92;98926.02;1723243;83;21195;-77
2021/03/05 02:39:27;;;;;;;31.40;13.50;;;;;;;2.12;69.14;98928.71;1723599;82;21155;-77
2021/03/05 02:41:58;;;;;;;25.82;12.18;;;;;;;2.19;69.12;98930.58;1695808;83;21131;-77
2021/03/05 02:44:31;;;;;;;29.57;13.60;;;;;;;2.27;68.89;98937.56;1723180;83;21187;-77
2021/03/05 02:47:02;;;;;;;28.75;13.05;;;;;;;2.21;69.04;98936.55;1723147;83;21155;-77
2021/03/05 02:49:33;;;;;;;30.30;13.38;;;;;;;2.14;69.27;98938.62;1723552;83;21151;-77
2021/03/05 02:52:08;;;;;;;25.48;12.25;;;;;;;2.09;69.44;98951.88;1724682;82;21155;-77
2021/03/05 02:54:37;;;;;;;31.35;13.43;;;;;;;2.12;69.57;98949.14;1723390;83;21135;-78
2021/03/05 02:57:07;;;;;;;33.73;14.53;;;;;;;2.12;69.71;98955.66;1723066;83;21178;-77
2021/03/05 02:59:37;;;;;;;31.02;13.45;;;;;;;2.09;69.78;98941.44;1723101;83;21162;-77
2021/03/05 03:02:05;;;;;;;34.75;13.78;;;;;;;2.25;69.51;98938.08;1695985;82;21174;-77
2021/03/05 03:04:33;;;;;;;32.48;14.55;;;;;;;2.30;69.50;98946.53;1753009;82;21678;-77
2021/03/05 03:07:02;;;;;;;33.30;15.25;;;;;;;2.25;69.52;98946.77;1724301;82;21139;-77
2021/03/05 03:09:29;;;;;;;30.65;13.98;;;;;;;2.21;69.66;98949.16;1753074;81;21324;-77
2021/03/05 03:11:57;;;;;;;29.05;13.08;;;;;;;2.16;69.76;98959.41;1753323;82;21595;-77
2021/03/05 03:14:25;;;;;;;27.95;13.25;;;;;;;2.13;69.94;98958.63;1752964;81;21123;-78
2021/03/05 03:16:53;;;;;;;27.05;12.37;;;;;;;2.12;69.97;98967.40;1727750;82;21186;-78
2021/03/05 03:19:20;;;;;;;31.23;14.65;;;;;;;2.12;70.07;98968.70;1724255;83;21174;-77
2021/03/05 03:21:47;;;;;;;31.75;13.93;;;;;;;2.30;69.84;98968.70;1721179;83;21148;-77
2021/03/05 03:24:14;;;;;;;30.88;13.48;;;;;;;2.37;69.74;98968.80;1715947;84;21158;-77
2021/03/05 03:26:42;;;;;;;33.00;13.95;;;;;;;2.33;69.78;98976.84;1715947;84;21167;-77
2021/03/05 03:29:09;;;;;;;28.30;13.25;;;;;;;2.25;69.92;98979.38;1715919;84;21164;-77
2021/03/05 03:31:38;;;;;;;27.98;13.28;;;;;;;2.23;70.13;98973.86;1715341;84;21127;-78
2021/03/05 03:34:07;;;;;;;28.52;14.03;;;;;;;2.24;70.19;98980.30;1688589;80;22316;-78
2021/03/05 03:36:38;;;;;;;29.30;13.40;;;;;;;2.42;69.83;98977.72;1721829;80;21143;-79
2021/03/05 03:39:08;;;;;;;28.50;12.65;;;;;;;2.42;69.79;98990.30;1721505;79;21163;-77
2021/03/05 03:41:38;;;;;;;22.02;11.40;;;;;;;2.35;69.93;98983.67;1722286;79;21171;-77
2021/03/05 03:44:10;;;;;;;29.87;13.65;;;;;;;2.29;70.12;98985.30;1721822;79;21384;-78
2021/03/05 03:46:47;;;;;;;30.60;13.80;;;;;;;2.23;70.21;98980.37;1722193;79;21116;-76
2021/03/05 03:49:27;;;;;;;28.55;13.22;;;;;;;2.23;70.14;98982.52;1654986;82;21210;-78
2021/03/05 03:52:12;;;;;;;34.90;13.48;;;;;;;2.18;70.31;98973.23;1684948;85;21560;-77
2021/03/05 03:54:42;;;;;;;28.55;12.80;;;;;;;2.16;70.36;98987.63;1656938;85;21158;-77
2021/03/05 03:57:12;;;;;;;23.90;11.48;;;;;;;2.12;70.56;98973.92;1683310;85;21196;-77
2021/03/05 03:59:39;;;;;;;24.70;12.28;;;;;;;2.26;70.43;98974.56;1683331;85;21611;-77
2021/03/05 04:02:07;;;;;;;26.12;12.73;;;;;;;2.36;70.14;98982.77;1682075;85;21174;-77
2021/03/05 04:04:35;;;;;;;28.12;12.78;;;;;;;2.34;70.45;98985.92;1683403;85;21357;-77
2021/03/05 04:07:02;;;;;;;27.55;12.90;;;;;;;2.24;70.72;98983.38;1683304;85;21685;-77
2021/03/05 04:09:30;;;;;;;31.70;13.80;;;;;;;2.14;71.09;98984.27;1683297;85;21190;-77
2021/03/05 04:11:59;;;;;;;30.17;12.20;;;;;;;2.11;71.43;98994.83;1683316;85;21186;-77
2021/03/05 04:14:27;;;;;;;27.87;13.08;;;;;;;2.24;71.59;98995.12;1683418;85;22315;-78
2021/03/05 04:16:56;;;;;;;29.50;13.53;;;;;;;2.32;71.61;98998.19;1672304;85;21185;-77
2021/03/05 04:19:23;;;;;;;30.12;13.28;;;;;;;2.21;71.86;99002.63;1678608;84;21205;-78
2021/03/05 04:21:52;;;;;;;27.17;11.97;;;;;;;2.09;72.27;98999.30;1663309;85;21189;-78
2021/03/05 04:24:20;;;;;;;30.17;13.98;;;;;;;2.01;73.06;98995.75;1704146;84;21156;-78
2021/03/05 04:26:50;;;;;;;27.75;13.15;;;;;;;2.01;73.26;98989.67;1704857;84;21603;-78
2021/03/05 04:29:17;;;;;;;34.03;15.32;;;;;;;2.10;73.39;98996.61;1705208;84;21179;-79
2021/03/05 04:31:45;;;;;;;34.80;15.13;;;;;;;2.00;73.85;99005.79;1708790;84;21326;-79
2021/03/05 04:34:13;;;;;;;35.33;13.20;;;;;;;1.89;74.45;99000.23;1708428;84;21159;-78
2021/03/05 04:36:40;;;;;;;37.50;16.30;;;;;;;1.80;74.61;99014.09;1704732;84;21606;-78
2021/03/05 04:39:08;;;;;;;40.20;16.50;;;;;;;1.86;74.69;99009.51;1704487;84;21202;-79
2021/03/05 04:41:35;;;;;;;36.77;16.57;;;;;;;2.03;74.43;99005.63;1710725;80;21175;-89
2021/03/05 04:44:05;;;;;;;35.48;15.78;;;;;;;2.01;74.73;99008.79;1712136;84;21173;-85
2021/03/05 04:46:32;;;;;;;33.23;15.35;;;;;;;1.90;75.12;99005.84;1710850;84;21191;-87
2021/03/05 04:49:01;;;;;;;36.93;14.50;;;;;;;1.83;75.37;99008.33;1707630;84;21330;-86
2021/03/05 04:51:29;;;;;;;31.23;15.38;;;;;;;1.84;75.44;99007.42;1704450;84;21139;-86
2021/03/05 04:53:56;;;;;;;30.10;13.30;;;;;;;2.03;75.11;99011.31;1704560;84;21140;-87
2021/03/05 04:56:24;;;;;;;31.20;12.90;;;;;;;2.08;74.98;99009.34;1709401;84;21215;-87
2021/03/05 04:58:52;;;;;;;30.85;14.00;;;;;;;1.97;75.18;99012.47;1705583;83;21171;-86
2021/03/05 05:01:19;;;;;;;35.83;14.83;;;;;;;1.87;75.40;99018.56;1704922;84;21199;-87
2021/03/05 05:03:46;;;;;;;34.85;14.68;;;;;;;1.83;75.59;99012.24;1709833;84;21183;-86
2021/03/05 05:06:15;;;;;;;33.95;14.60;;;;;;;1.85;75.59;99018.23;1710815;84;21163;-86
2021/03/05 05:08:43;;;;;;;30.25;14.23;;;;;;;2.04;75.11;99019.06;1710630;83;21167;-86
2021/03/05 05:11:11;;;;;;;38.05;15.30;;;;;;;2.09;75.03;99019.69;1710886;83;21604;-87
2021/03/05 05:13:40;;;;;;;37.40;15.32;;;;;;;2.03;75.21;99027.80;1710609;83;21191;-86
2021/03/05 05:16:07;;;;;;;33.67;14.20;;;;;;;1.96;75.32;99027.72;1710060;84;21167;-86
2021/03/05 05:18:36;;;;;;;34.80;14.30;;;;;;;1.93;75.42;99026.54;1711944;84;21180;-84
2021/03/05 05:21:03;;;;;;;36.17;16.05;;;;;;;1.95;75.33;99024.25;1712004;82;21203;-85
2021/03/05 05:23:31;;;;;;;34.65;15.43;;;;;;;2.16;74.91;99027.23;1709143;84;21266;-85
2021/03/05 05:26:01;;;;;;;33.33;16.05;;;;;;;2.19;74.88;99027.94;1688197;84;21211;-86
2021/03/05 05:28:28;;;;;;;36.20;15.68;;;;;;;2.11;74.97;99023.09;1700823;84;21103;-87
2021/03/05 05:30:58;;;;;;;36.00;15.68;;;;;;;2.12;75.08;99033.91;1710422;83;21726;-85
2021/03/05 05:33:27;;;;;;;36.35;16.97;;;;;;;2.08;75.17;99040.17;1703286;84;21151;-86
2021/03/05 05:35:56;;;;;;;32.20;15.50;;;;;;;2.12;75.21;99040.44;1706792;84;21167;-86
2021/03/05 05:38:23;;;;;;;40.58;18.15;;;;;;;2.32;74.93;99041.24;1709706;84;21191;-87
2021/03/05 05:40:52;;;;;;;38.53;18.50;;;;;;;2.30;75.27;99031.33;1702951;84;21195;-86
2021/03/05 05:43:20;;;;;;;43.63;19.32;;;;;;;2.16;75.54;99051.55;1692663;84;21135;-84
2021/03/05 05:45:47;;;;;;;31.42;15.35;;;;;;;2.04;75.91;99045.14;1706297;84;21151;-85
2021/03/05 05:48:15;;;;;;;36.70;17.57;;;;;;;2.01;76.16;99044.00;1706476;84;21187;-86
2021/03/05 05:50:43;;;;;;;35.98;15.30;;;;;;;2.11;75.96;99049.17;1687509;84;21132;-84
2021/03/05 05:53:10;;;;;;;39.50;15.85;;;;;;;2.10;76.02;99060.52;1710048;84;21167;-88
2021/03/05 05:55:38;;;;;;;35.05;15.50;;;;;;;2.02;76.42;99051.35;1709717;84;21179;-84
2021/03/05 05:58:05;;;;;;;38.67;15.20;;;;;;;1.92;76.65;99047.05;1710165;83;21148;-86
2021/03/05 06:00:33;;;;;;;38.05;16.17;;;;;;;1.97;76.56;99056.80;1709492;84;21128;-84
2021/03/05 06:03:00;;;;;;;39.90;18.12;;;;;;;2.08;76.35;99058.90;1709908;84;21155;-85
2021/03/05 06:05:30;;;;;;;35.33;16.52;;;;;;;2.04;76.37;99054.27;1707813;84;21179;-85
2021/03/05 06:07:57;;;;;;;36.40;16.42;;;;;;;1.98;76.65;99068.06;1706596;84;21199;-88
2021/03/05 06:10:25;;;;;;;33.80;15.75;;;;;;;1.94;76.85;99066.05;1704944;84;21303;-88
2021/03/05 06:12:52;;;;;;;32.00;15.68;;;;;;;2.07;76.58;99064.58;1694989;85;21185;-88
2021/03/05 06:15:21;;;;;;;35.40;15.23;;;;;;;2.21;76.26;99068.30;1695135;85;21166;-88
2021/03/05 06:17:49;;;;;;;38.58;16.37;;;;;;;2.16;76.25;99083.32;1698168;85;21159;-88
2021/03/05 06:20:19;;;;;;;38.53;16.57;;;;;;;2.07;76.36;99077.63;1698135;83;21196;-89
2021/03/05 06:23:08;;;;;;;35.48;17.12;;;;;;;2.03;76.54;99083.88;1685474;83;21160;-88
2021/03/05 06:25:37;;;;;;;32.05;16.85;;;;;;;2.07;76.36;99081.98;1717906;83;21184;-87
2021/03/05 06:28:17;;;;;;;34.48;17.37;;;;;;;2.25;75.86;99081.58;1715461;83;21142;-87
2021/03/05 06:30:45;;;;;;;35.08;17.37;;;;;;;2.20;75.69;99084.86;1711965;84;21170;-84
2021/03/05 06:33:29;;;;;;;37.95;17.67;;;;;;;2.13;75.91;99085.14;1716883;83;21135;-86
2021/03/05 06:36:15;;;;;;;35.30;14.43;;;;;;;2.10;75.80;99097.50;1715395;83;21452;-84
2021/03/05 06:38:46;;;;;;;30.97;15.38;;;;;;;2.18;75.52;99094.55;1665730;85;21591;-83
2021/03/05 06:41:25;;;;;;;36.88;16.97;;;;;;;2.31;75.07;99087.81;1653795;86;21155;-83
2021/03/05 06:43:58;;;;;;;40.33;20.23;;;;;;;2.27;74.97;99086.28;1648343;85;21191;-85
2021/03/05 06:46:43;;;;;;;36.73;17.87;;;;;;;2.21;75.06;99089.17;1668748;86;21187;-86
2021/03/05 06:49:13;;;;;;;35.13;16.25;;;;;;;2.19;74.95;99085.80;1655006;86;21183;-84
2021/03/05 06:51:41;;;;;;;37.28;16.87;;;;;;;2.23;74.96;99087.34;1667987;86;21199;-86
2021/03/05 06:54:13;;;;;;;35.50;16.87;;;;;;;2.44;74.49;99085.03;1667916;86;21297;-86
2021/03/05 06:56:44;;;;;;;34.38;16.62;;;;;;;2.51;74.35;99084.27;1668319;84;22408;-85
2021/03/05 06:59:14;;;;;;;35.98;16.90;;;;;;;2.54;74.08;99095.02;1672925;84;21531;-85
2021/03/05 07:01:56;;;;;;;35.58;16.85;;;;;;;2.55;73.84;99094.95;1659541;84;21302;-85
2021/03/05 07:04:27;;;;;;;32.23;15.20;;;;;;;2.54;73.82;99089.80;1706158;83;21144;-84
2021/03/05 07:07:08;;;;;;;34.43;15.50;;;;;;;2.52;73.57;99090.33;1713744;83;21163;-85
2021/03/05 07:09:39;;;;;;;30.17;14.45;;;;;;;2.73;72.77;99094.98;1717683;83;21155;-85
2021/03/05 07:12:14;;;;;;;33.70;15.00;;;;;;;2.75;72.49;99083.55;1703516;83;21232;-85
2021/03/05 07:14:50;;;;;;;27.62;13.78;;;;;;;2.74;72.38;99084.94;1717126;82;21711;-85
2021/03/05 07:17:20;;;;;;;31.00;15.13;;;;;;;2.73;72.15;99089.30;1708873;83;21107;-85
2021/03/05 07:19:49;;;;;;;27.75;13.72;;;;;;;2.74;72.02;99082.33;1689018;85;21167;-82
2021/03/05 07:22:18;;;;;;;30.15;14.45;;;;;;;2.83;71.20;99097.53;1700542;84;21150;-83
2021/03/05 07:24:49;;;;;;;26.80;13.83;;;;;;;3.03;70.34;99090.03;1706553;82;21195;-83
2021/03/05 07:27:16;;;;;;;30.70;14.80;;;;;;;3.04;70.09;99087.77;1697293;83;21588;-87
2021/03/05 07:29:44;;;;;;;27.87;14.45;;;;;;;3.01;69.70;99089.25;1697390;84;21136;-84
2021/03/05 07:32:24;;;;;;;24.45;12.25;;;;;;;2.98;69.74;99092.03;1687697;84;21565;-85
2021/03/05 07:35:01;;;;;;;23.85;12.30;;;;;;;2.92;69.18;99093.63;1703554;84;21143;-82
2021/03/05 07:37:36;;;;;;;24.92;11.50;;;;;;;2.95;68.82;99093.02;1701452;84;21240;-81
2021/03/05 07:40:11;;;;;;;23.87;11.57;;;;;;;2.93;68.38;99083.57;1706511;84;21678;-80
2021/03/05 07:42:39;;;;;;;25.50;12.10;;;;;;;3.01;68.70;99082.72;1709386;83;21175;-80
2021/03/05 07:45:07;;;;;;;22.55;11.65;;;;;;;3.19;68.28;99091.87;1709996;83;21196;-80
2021/03/05 07:47:37;;;;;;;23.75;13.32;;;;;;;3.19;67.48;99085.34;1692775;84;21181;-86
2021/03/05 07:50:09;;;;;;;25.20;12.45;;;;;;;3.15;67.12;99098.18;1717824;82;21167;-87
2021/03/05 07:52:38;;;;;;;29.90;13.20;;;;;;;3.15;67.45;99095.09;1745843;79;21488;-85
2021/03/05 07:55:07;;;;;;;30.37;13.20;;;;;;;3.15;67.70;99092.48;1715712;80;21150;-87
2021/03/05 07:57:43;;;;;;;27.70;12.98;;;;;;;3.19;67.50;99098.40;1702084;84;21171;-87
2021/03/05 08:00:08;;;;;;;25.20;12.95;;;;;;;3.24;66.86;99102.46;1725855;82;21143;-84
2021/03/05 08:02:55;;;;;;;24.63;12.53;;;;;;;3.26;66.56;99103.68;1738035;82;21151;-84
2021/03/05 08:05:39;;;;;;;23.83;11.53;;;;;;;3.32;65.73;99105.16;1703974;82;21176;-86
2021/03/05 08:08:24;;;;;;;25.23;13.28;;;;;;;3.30;65.71;99094.79;1720488;82;21159;-86
2021/03/05 08:11:05;;;;;;;25.52;13.08;;;;;;;3.34;65.75;99099.38;1690883;84;21270;-86
2021/03/05 08:13:52;;;;;;;27.52;13.55;;;;;;;3.34;65.80;99093.70;1711247;82;21178;-87
2021/03/05 08:16:38;;;;;;;27.85;14.03;;;;;;;3.37;65.78;99096.14;1707896;84;21854;-85
2021/03/05 08:19:14;;;;;;;28.35;13.98;;;;;;;3.43;65.68;99092.39;1716835;82;21765;-89
2021/03/05 08:22:03;;;;;;;26.50;14.85;;;;;;;3.49;65.87;99099.06;1713585;82;21297;-87
2021/03/05 08:24:41;;;;;;;31.60;14.63;;;;;;;3.59;65.78;99093.73;1712441;82;21611;-86
2021/03/05 08:27:23;;;;;;;31.80;14.75;;;;;;;3.60;65.37;99104.11;1716089;82;21167;-87
2021/03/05 08:30:01;;;;;;;28.23;14.13;;;;;;;3.62;65.34;99113.20;1740599;82;21282;-86
2021/03/05 08:32:37;;;;;;;27.20;13.68;;;;;;;3.65;65.32;99115.64;1726358;82;21201;-85
2021/03/05 08:35:10;;;;;;;26.62;13.58;;;;;;;3.61;64.85;99103.66;1713474;82;21575;-84
2021/03/05 08:37:44;;;;;;;24.98;12.35;;;;;;;3.64;64.82;99101.34;1709465;82;21123;-83
2021/03/05 08:40:22;;;;;;;25.77;13.38;;;;;;;3.65;64.78;99097.81;1709987;82;21134;-86
2021/03/05 08:42:57;;;;;;;24.43;13.05;;;;;;;3.68;64.94;99106.80;1708768;82;21191;-85
2021/03/05 08:45:31;;;;;;;26.77;13.48;;;;;;;3.69;64.79;99094.94;1719245;82;21134;-82
2021/03/05 08:48:04;;;;;;;26.33;13.35;;;;;;;3.70;64.74;99095.33;1702928;82;21151;-85
2021/03/05 08:50:34;;;;;;;24.90;13.15;;;;;;;3.75;64.17;99105.08;1707107;82;21139;-86
2021/03/05 08:53:07;;;;;;;28.15;13.15;;;;;;;3.77;64.10;99101.94;1712675;82;21166;-87
2021/03/05 08:55:37;;;;;;;28.90;13.58;;;;;;;3.82;63.92;99110.00;1714840;83;21175;-86
2021/03/05 08:58:08;;;;;;;;;;;;;;;3.91;63.87;99107.75;1693724;84;21134;-87
2021/03/05 09:00:36;;;;;;;26.45;12.82;;;;;;;4.01;63.52;99119.02;1723224;82;20485;-84
2021/03/05 09:03:15;;;;;;;28.47;13.50;;;;;;;3.99;63.27;99121.73;1718194;82;21158;-85
2021/03/05 09:05:50;;;;;;;26.68;14.70;;;;;;;4.01;62.98;99108.55;1692086;82;21615;-85
2021/03/05 09:08:25;;;;;;;26.07;13.45;;;;;;;4.04;62.80;99111.86;1719589;82;21180;-89
2021/03/05 09:13:42;;;;;;;23.95;12.23;;;;;;;4.07;62.53;99118.70;1773400;79;23148;-78
2021/03/05 09:16:09;;;;;;;24.95;12.07;;;;;;;4.07;62.72;99118.22;1743375;81;21158;-78
2021/03/05 09:18:38;;;;;;;27.07;12.58;;;;;;;4.18;62.52;99126.82;1750699;82;21197;-78
2021/03/05 09:21:09;;;;;;;25.68;12.28;;;;;;;4.28;62.01;99128.93;1723015;83;21272;-78
2021/03/05 09:23:44;;;;;;;17.42;10.20;;;;;;;4.34;61.26;99125.51;1730076;82;21630;-78
2021/03/05 09:26:16;;;;;;;23.77;11.70;;;;;;;4.35;61.18;99123.28;1721271;83;22365;-78
2021/03/05 09:28:49;;;;;;;22.13;11.48;;;;;;;4.40;60.86;99126.97;1724315;82;21617;-77
2021/03/05 09:31:23;;;;;;;22.20;11.70;;;;;;;4.42;60.40;99136.87;1736633;82;21318;-78
2021/03/05 09:33:52;;;;;;;19.98;10.88;;;;;;;4.50;60.30;99122.05;1723244;83;21702;-78
2021/03/05 09:36:22;;;;;;;18.70;10.25;;;;;;;4.59;60.16;99128.94;1727472;82;21115;-78
2021/03/05 09:38:55;;;;;;;17.95;10.43;;;;;;;4.70;59.42;99128.32;1676347;85;21622;-78
2021/03/05 09:41:27;;;;;;;22.20;13.28;;;;;;;4.81;59.50;99139.97;1681975;84;21296;-78
2021/03/05 09:44:05;;;;;;;21.65;11.80;;;;;;;4.91;58.85;99131.52;1674221;83;21165;-77
2021/03/05 09:46:38;;;;;;;16.25;8.53;;;;;;;4.99;59.00;99136.32;1678360;85;21182;-77
2021/03/05 09:49:23;;;;;;;19.82;10.43;;;;;;;5.03;58.08;99143.55;1691073;83;21196;-78
2021/03/05 09:51:52;;;;;;;19.77;10.65;;;;;;;4.95;58.54;99141.36;1680012;85;21658;-77
2021/03/05 09:54:41;;;;;;;20.60;11.08;;;;;;;4.96;58.68;99149.58;1664593;85;21150;-77
2021/03/05 09:57:12;;;;;;;19.77;10.23;;;;;;;4.95;58.22;99151.84;1674726;85;21170;-77
2021/03/05 09:59:48;;;;;;;21.93;11.53;;;;;;;4.95;58.05;99147.05;1683780;85;21214;-78
2021/03/05 10:02:22;;;;;;;26.95;14.85;;;;;;;4.92;57.65;99145.45;1692738;83;21186;-77
2021/03/05 10:04:51;;;;;;;24.20;13.32;;;;;;;4.87;57.64;99150.97;1681927;85;21154;-78
2021/03/05 10:07:18;;;;;;;20.40;11.55;;;;;;;4.83;57.99;99156.45;1693970;83;21186;-77
2021/03/05 10:09:46;;;;;;;19.75;10.58;;;;;;;4.70;57.76;99161.06;1658690;83;21610;-77
2021/03/05 10:12:13;;;;;;;21.42;11.18;;;;;;;4.55;58.61;99160.60;1652841;86;21213;-77
2021/03/05 10:14:41;;;;;;;20.37;10.80;;;;;;;4.53;59.02;99170.34;1673986;84;21206;-77
2021/03/05 10:17:14;;;;;;;16.60;9.28;;;;;;;4.51;60.04;99163.02;1658018;85;21139;-77
2021/03/05 10:19:43;;;;;;;15.63;9.10;;;;;;;4.48;59.84;99168.44;1635407;85;21211;-78
2021/03/05 10:22:12;;;;;;;18.55;9.80;;;;;;;4.42;60.06;99172.22;1670957;84;21183;-78
2021/03/05 10:24:40;;;;;;;19.48;10.03;;;;;;;4.41;60.35;99174.00;1669447;86;21187;-78
2021/03/05 10:27:21;;;;;;;21.30;10.45;;;;;;;4.34;61.35;99170.02;1671533;84;21324;-78
2021/03/05 10:29:52;;;;;;;22.48;11.08;;;;;;;4.23;62.10;99172.36;1670780;86;21199;-78
2021/03/05 10:32:25;;;;;;;18.98;10.32;;;;;;;4.22;62.48;99182.44;1667601;84;21199;-78
2021/03/05 10:35:04;;;;;;;21.35;11.12;;;;;;;4.31;62.65;99176.73;1734986;82;21199;-77
2021/03/05 10:37:36;;;;;;;19.67;10.28;;;;;;;4.21;63.79;99183.39;1701954;84;21168;-77
2021/03/05 10:40:08;;;;;;;17.92;9.40;;;;;;;4.08;65.07;99187.95;1705646;82;21144;-77
2021/03/05 10:42:35;;;;;;;19.30;10.90;;;;;;;3.88;66.06;99186.84;1725241;82;21176;-78
2021/03/05 10:45:04;;;;;;;18.37;10.55;;;;;;;3.71;66.74;99183.77;1704003;82;21663;-79
2021/03/05 10:47:33;;;;;;;20.32;10.30;;;;;;;3.61;67.49;99182.10;1713734;82;21600;-79
2021/03/05 10:50:03;;;;;;;17.98;10.05;;;;;;;3.57;67.85;99186.64;1710587;82;21203;-79
2021/03/05 10:52:30;;;;;;;16.65;9.08;;;;;;;3.73;67.79;99199.80;1722045;82;21278;-79
2021/03/05 10:54:58;;;;;;;18.52;10.60;;;;;;;3.82;67.84;99195.00;1714998;82;21600;-79
2021/03/05 10:57:25;;;;;;;20.23;10.93;;;;;;;3.75;68.01;99192.70;1706278;83;21184;-81
2021/03/05 10:59:52;;;;;;;18.20;9.95;;;;;;;3.76;68.47;99200.10;1711897;82;21146;-79
2021/03/05 11:02:20;;;;;;;19.40;9.28;;;;;;;3.81;68.12;99202.46;1710381;84;21178;-79
2021/03/05 11:04:48;;;;;;;18.67;9.00;;;;;;;3.74;67.32;99196.23;1708876;82;21198;-79
2021/03/05 11:07:15;;;;;;;15.70;7.90;;;;;;;3.69;67.03;99206.08;1696558;82;21199;-79
2021/03/05 11:09:44;;;;;;;13.80;7.30;;;;;;;3.68;67.38;99201.77;1681097;84;21313;-79
2021/03/05 11:12:13;;;;;;;15.28;7.62;;;;;;;3.66;67.19;99190.56;1703807;82;21182;-79
2021/03/05 11:14:41;;;;;;;16.02;7.80;;;;;;;3.81;67.19;99195.92;1722934;82;21655;-80
2021/03/05 11:17:08;;;;;;;18.95;8.90;;;;;;;4.07;66.77;99192.80;1722044;82;21170;-79
2021/03/05 11:19:36;;;;;;;18.17;8.75;;;;;;;4.21;66.41;99195.17;1732557;82;21182;-79
2021/03/05 11:22:04;;;;;;;20.10;9.15;;;;;;;4.28;66.80;99199.13;1719624;83;21571;-80
2021/03/05 11:24:31;;;;;;;19.37;10.95;;;;;;;4.32;66.42;99200.66;1716934;82;21178;-79
2021/03/05 11:26:59;;;;;;;21.33;10.93;;;;;;;4.27;66.25;99194.81;1723328;83;21591;-80
2021/03/05 11:29:26;;;;;;;19.00;10.10;;;;;;;4.24;66.43;99191.06;1709542;82;21178;-80
2021/03/05 11:31:54;;;;;;;11.88;6.78;;;;;;;4.23;65.61;99195.47;1726019;82;21216;-80
2021/03/05 11:34:21;;;;;;;11.93;6.80;;;;;;;4.18;64.86;99201.86;1723333;83;21159;-77
2021/03/05 11:36:50;;;;;;;9.95;5.72;;;;;;;4.14;64.20;99197.72;1713505;82;21686;-77
2021/03/05 11:39:18;;;;;;;7.28;4.67;;;;;;;4.09;63.75;99202.73;1701960;83;21152;-77
2021/03/05 11:41:45;;;;;;;9.55;5.25;;;;;;;4.06;63.34;99198.95;1703995;82;21197;-77
2021/03/05 11:44:14;;;;;;;9.95;5.20;;;;;;;3.96;63.26;99216.53;1722437;82;21157;-79
2021/03/05 11:46:42;;;;;;;8.65;5.20;;;;;;;3.91;63.74;99211.53;1720720;83;21198;-80
2021/03/05 11:49:09;;;;;;;10.25;5.60;;;;;;;3.93;63.76;99211.00;1718015;82;21207;-80
2021/03/05 11:51:39;;;;;;;9.00;4.72;;;;;;;3.98;64.06;99211.61;1725997;82;21675;-80
2021/03/05 11:54:07;;;;;;;11.18;6.40;;;;;;;4.02;63.78;99217.05;1695113;82;21224;-77
2021/03/05 11:56:36;;;;;;;10.45;6.22;;;;;;;3.93;64.33;99201.84;1724707;82;21170;-77
2021/03/05 11:59:05;;;;;;;11.95;6.35;;;;;;;4.13;64.18;99206.05;1721840;83;21190;-77
2021/03/05 12:01:33;;;;;;;10.58;6.28;;;;;;;4.43;63.58;99217.11;1721403;82;21202;-77
2021/03/05 12:04:02;;;;;;;15.68;8.65;;;;;;;4.39;63.76;99211.19;1693630;85;21192;-77
2021/03/05 12:06:30;;;;;;;18.48;9.00;;;;;;;4.34;64.12;99213.69;1666856;84;21181;-77
2021/03/05 12:08:57;;;;;;;14.68;8.33;;;;;;;4.24;65.02;99220.70;1711314;83;21204;-78
2021/03/05 12:11:25;;;;;;;16.17;8.33;;;;;;;4.15;65.23;99219.88;1727183;82;21162;-77
2021/03/05 12:13:52;;;;;;;15.32;8.15;;;;;;;4.08;65.78;99212.81;1717993;82;21146;-77